Time;durP1;ratioP1;P1;durP2;ratioP2;P2;SDS_P1;SDS_P2;PMS_P1;PMS_P2;Temp;Humidity;BMP_temperature;BMP_pressure;BME280_temperature;BME280_humidity;BME280_pressure;Samples;Min_cycle;Max_cycle;Signal;HPM_P1;HPM_P2
2023/05/13 00:01:47;;;;;;;5.80;4.03;;;;;;;10.13;45.34;102235.66;5079555;27;21744;-71
2023/05/13 00:04:12;;;;;;;6.30;4.30;;;;;;;10.11;45.46;102233.06;5073079;28;20564;-72
2023/05/13 00:06:38;;;;;;;6.53;3.55;;;;;;;10.14;45.57;102222.53;5072670;28;20369;-72
2023/05/13 00:09:03;;;;;;;6.47;4.10;;;;;;;10.14;45.49;102226.91;5077954;27;20055;-72
2023/05/13 00:11:29;;;;;;;7.47;4.60;;;;;;;10.00;46.23;102221.91;5071408;28;20150;-71
2023/05/13 00:13:54;;;;;;;10.63;4.63;;;;;;;9.90;46.50;102229.06;5073528;28;20047;-71
2023/05/13 00:16:22;;;;;;;6.18;4.82;;;;;;;9.83;46.92;102229.16;5076707;27;20955;-72
2023/05/13 00:18:48;;;;;;;7.55;4.20;;;;;;;9.79;46.91;102231.81;5071268;27;20138;-72
2023/05/13 00:21:14;;;;;;;5.63;4.18;;;;;;;9.74;47.44;102222.28;5060998;28;20050;-71
2023/05/13 00:23:39;;;;;;;9.38;5.10;;;;;;;9.78;47.29;102224.81;5073132;27;20055;-77
2023/05/13 00:26:05;;;;;;;6.85;4.82;;;;;;;9.72;47.32;102224.94;5076148;28;20043;-76
2023/05/13 00:28:30;;;;;;;5.70;5.00;;;;;;;9.71;47.31;102228.41;5062309;27;20081;-71
2023/05/13 00:30:56;;;;;;;9.13;4.82;;;;;;;9.66;47.59;102224.16;5071531;28;20031;-72
2023/05/13 00:33:21;;;;;;;8.85;4.88;;;;;;;9.62;47.82;102225.94;5071676;28;20032;-71
2023/05/13 00:35:47;;;;;;;11.35;5.18;;;;;;;9.47;47.74;102226.16;5074334;27;20039;-72
2023/05/13 00:38:12;;;;;;;8.90;4.80;;;;;;;9.58;47.80;102222.50;5079012;28;20039;-72
2023/05/13 00:40:38;;;;;;;9.57;4.65;;;;;;;9.56;48.21;102221.66;5072942;28;20096;-72
2023/05/13 00:43:04;;;;;;;7.95;5.13;;;;;;;9.54;48.28;102228.69;5073283;28;20669;-71
2023/05/13 00:45:30;;;;;;;8.85;4.80;;;;;;;9.64;47.50;102229.41;5056307;28;20685;-71
2023/05/13 00:47:58;;;;;;;7.90;5.00;;;;;;;9.55;47.91;102229.53;5075122;28;20039;-71
2023/05/13 00:50:23;;;;;;;7.20;5.93;;;;;;;9.34;48.50;102225.44;5077072;28;20074;-72
2023/05/13 00:52:50;;;;;;;7.68;5.53;;;;;;;9.32;48.69;102222.88;5061573;28;20345;-75
2023/05/13 00:55:16;;;;;;;9.63;6.47;;;;;;;9.29;48.79;102225.53;5064241;28;20092;-75
2023/05/13 00:57:42;;;;;;;11.13;5.78;;;;;;;9.24;49.03;102227.34;5078930;28;20748;-76
2023/05/13 01:00:09;;;;;;;11.15;5.70;;;;;;;9.24;49.24;102218.66;5081148;28;20051;-76
2023/05/13 01:03:00;;;;;;;8.40;6.07;;;;;;;9.20;49.35;102220.41;5081340;27;20319;-78
2023/05/13 01:06:04;;;;;;;8.38;5.72;;;;;;;9.02;49.82;102225.88;5090179;28;20026;-80
2023/05/13 01:08:53;;;;;;;8.27;5.30;;;;;;;8.95;50.45;102230.31;5089630;28;20062;-79
2023/05/13 01:11:26;;;;;;;7.93;5.70;;;;;;;9.27;49.20;102223.81;5072125;28;20040;-75
2023/05/13 01:14:15;;;;;;;9.00;5.70;;;;;;;9.26;49.78;102220.34;5055768;28;20081;-74
2023/05/13 01:16:48;;;;;;;6.85;4.85;;;;;;;9.30;49.12;102222.03;5074170;28;20028;-74
2023/05/13 01:19:34;;;;;;;6.47;5.03;;;;;;;9.16;49.60;102223.94;5070207;28;20039;-77
2023/05/13 01:22:00;;;;;;;10.30;5.22;;;;;;;9.01;50.02;102226.75;5075115;28;20039;-75
2023/05/13 01:24:25;;;;;;;9.98;5.75;;;;;;;8.96;50.24;102219.84;5075114;28;20047;-77
2023/05/13 01:26:51;;;;;;;7.43;6.72;;;;;;;8.89;50.68;102220.78;5077355;28;20031;-76
2023/05/13 01:29:17;;;;;;;10.80;6.78;;;;;;;8.83;50.64;102226.09;5076274;28;20231;-75
2023/05/13 01:31:45;;;;;;;9.70;5.90;;;;;;;8.72;51.19;102227.97;5059204;28;20036;-74
2023/05/13 01:34:12;;;;;;;11.27;6.95;;;;;;;8.84;51.02;102230.41;5073052;28;20489;-71
2023/05/13 01:36:38;;;;;;;8.25;5.88;;;;;;;8.95;50.63;102233.75;5075783;28;20031;-73
2023/05/13 01:39:06;;;;;;;12.10;7.32;;;;;;;8.97;50.30;102229.41;5091180;27;20568;-71
2023/05/13 01:41:32;;;;;;;9.80;6.93;;;;;;;8.98;50.57;102235.47;5073752;28;20043;-74
2023/05/13 01:43:58;;;;;;;8.55;7.35;;;;;;;8.97;50.58;102233.75;5054397;28;20040;-74
2023/05/13 01:46:23;;;;;;;11.73;6.47;;;;;;;9.00;50.41;102238.91;5073497;28;20036;-71
2023/05/13 01:48:49;;;;;;;14.07;7.13;;;;;;;9.02;50.20;102241.53;5073637;28;20052;-71
2023/05/13 01:51:14;;;;;;;8.75;7.20;;;;;;;8.83;50.86;102231.31;5077668;28;20036;-71
2023/05/13 01:53:40;;;;;;;10.82;7.75;;;;;;;8.90;50.46;102234.72;5075100;28;20440;-72
2023/05/13 01:56:09;;;;;;;11.60;7.53;;;;;;;8.95;50.74;102231.16;5078725;28;20298;-72
2023/05/13 01:58:34;;;;;;;11.32;8.35;;;;;;;8.92;50.45;102225.97;5061410;28;20086;-74
2023/05/13 02:01:00;;;;;;;13.55;8.52;;;;;;;8.74;50.89;102226.19;5080796;27;20782;-73
2023/05/13 02:03:25;;;;;;;11.80;8.55;;;;;;;8.74;50.83;102226.19;5075602;27;20092;-71
2023/05/13 02:05:51;;;;;;;9.48;7.07;;;;;;;8.74;50.85;102224.44;5080721;28;20039;-73
2023/05/13 02:08:17;;;;;;;13.98;7.97;;;;;;;8.64;51.16;102229.72;5078143;27;20059;-73
2023/05/13 02:10:42;;;;;;;11.52;7.90;;;;;;;8.77;50.57;102227.00;5069739;28;20027;-74
2023/05/13 02:13:08;;;;;;;11.00;8.18;;;;;;;8.75;50.64;102225.31;5078326;28;20189;-72
2023/05/13 02:15:33;;;;;;;12.13;8.27;;;;;;;8.67;51.20;102224.47;5093398;27;20038;-72
2023/05/13 02:17:59;;;;;;;18.45;9.00;;;;;;;8.67;51.09;102220.16;5064974;28;21598;-72
2023/05/13 02:20:25;;;;;;;14.57;8.85;;;;;;;8.66;51.12;102223.63;5074814;28;20084;-72
2023/05/13 02:22:50;;;;;;;10.88;7.75;;;;;;;8.64;51.37;102227.97;5061439;28;20051;-73
2023/05/13 02:25:16;;;;;;;14.70;8.15;;;;;;;8.59;51.32;102226.31;5080387;28;20031;-72
2023/05/13 02:27:41;;;;;;;15.55;8.30;;;;;;;8.64;51.14;102221.91;5079020;27;20028;-72
2023/05/13 02:30:07;;;;;;;13.90;9.65;;;;;;;8.53;51.32;102225.47;5083844;28;20080;-72
2023/05/13 02:32:33;;;;;;;10.90;8.88;;;;;;;8.55;51.53;102230.69;5078888;28;20028;-73
2023/05/13 02:34:58;;;;;;;12.38;8.88;;;;;;;8.52;51.55;102220.31;5082477;27;20114;-72
2023/05/13 02:37:24;;;;;;;15.75;9.55;;;;;;;8.52;51.43;102210.75;5079633;28;20059;-74
2023/05/13 02:39:57;;;;;;;17.00;9.70;;;;;;;8.51;51.91;102219.41;5059758;28;20032;-70
2023/05/13 02:42:23;;;;;;;13.73;9.90;;;;;;;8.62;51.53;102218.47;5063035;28;20041;-71
2023/05/13 02:44:48;;;;;;;10.82;8.40;;;;;;;8.51;51.63;102227.22;5063954;28;20071;-82
2023/05/13 02:47:15;;;;;;;14.77;9.70;;;;;;;8.46;51.85;102226.44;5105973;27;20055;-79
2023/05/13 02:49:40;;;;;;;10.15;8.50;;;;;;;8.43;51.83;102221.25;5085846;27;20144;-75
2023/05/13 02:52:06;;;;;;;14.50;10.85;;;;;;;8.41;52.06;102222.16;5058552;28;20024;-74
2023/05/13 02:54:34;;;;;;;12.90;9.93;;;;;;;8.36;52.16;102220.44;5057675;28;20227;-74
2023/05/13 02:56:59;;;;;;;15.80;9.75;;;;;;;8.34;52.41;102219.59;5081844;27;20715;-74
2023/05/13 02:59:25;;;;;;;15.93;9.35;;;;;;;8.25;52.61;102217.09;5061727;28;21891;-74
2023/05/13 03:01:50;;;;;;;12.90;9.00;;;;;;;8.27;52.91;102219.66;5077996;27;20024;-74
2023/05/13 03:04:16;;;;;;;14.40;10.15;;;;;;;8.36;52.39;102220.44;5075006;28;20702;-75
2023/05/13 03:06:41;;;;;;;14.70;10.32;;;;;;;8.37;52.09;102221.31;5090312;27;20873;-73
2023/05/13 03:09:07;;;;;;;11.90;9.98;;;;;;;8.40;51.60;102226.47;5080111;27;20042;-74
2023/05/13 03:11:32;;;;;;;12.35;9.98;;;;;;;8.17;52.71;102225.84;5078587;28;20027;-73
2023/05/13 03:13:57;;;;;;;14.95;9.68;;;;;;;8.40;52.08;102231.69;5078212;27;20043;-73
2023/05/13 03:16:23;;;;;;;14.65;9.70;;;;;;;8.47;51.65;102233.38;5076479;28;20093;-73
2023/05/13 03:18:48;;;;;;;19.40;9.95;;;;;;;8.32;52.55;102233.53;5076266;27;20048;-72
2023/05/13 03:21:15;;;;;;;13.75;10.73;;;;;;;8.34;51.99;102226.56;5095025;27;20024;-74
2023/05/13 03:23:41;;;;;;;13.55;9.98;;;;;;;8.27;52.31;102238.78;5072764;28;20042;-71
2023/05/13 03:26:07;;;;;;;12.88;11.15;;;;;;;8.25;52.50;102229.22;5063196;28;20035;-73
2023/05/13 03:28:33;;;;;;;15.52;10.07;;;;;;;8.26;52.32;102229.22;5079709;28;20538;-71
2023/05/13 03:30:59;;;;;;;17.85;10.32;;;;;;;8.25;52.14;102221.41;5089395;27;20036;-81
2023/05/13 03:33:28;;;;;;;15.63;10.30;;;;;;;8.06;53.10;102226.78;5077601;28;20849;-72
2023/05/13 03:35:54;;;;;;;16.50;9.85;;;;;;;8.15;52.43;102229.28;5074719;27;20036;-70
2023/05/13 03:38:24;;;;;;;20.50;9.48;;;;;;;8.29;52.15;102233.53;5074940;28;20078;-70
2023/05/13 03:40:51;;;;;;;14.30;10.25;;;;;;;8.28;52.01;102239.63;5071938;28;20119;-70
2023/05/13 03:43:16;;;;;;;17.75;11.40;;;;;;;8.20;52.27;102226.66;5055793;27;20058;-72
2023/05/13 03:45:47;;;;;;;17.15;10.73;;;;;;;8.17;52.20;102237.09;5072670;27;20479;-70
2023/05/13 03:48:16;;;;;;;15.95;11.23;;;;;;;8.20;52.42;102241.41;5063469;27;20114;-69
2023/05/13 03:50:41;;;;;;;13.70;11.00;;;;;;;8.24;52.33;102230.09;5079509;27;20027;-76
2023/05/13 03:53:07;;;;;;;15.38;10.50;;;;;;;8.15;52.86;102233.66;5067205;28;20121;-77
2023/05/13 03:55:34;;;;;;;16.65;10.20;;;;;;;8.23;52.60;102239.66;5083840;27;20035;-77
2023/05/13 03:58:13;;;;;;;22.85;10.27;;;;;;;8.21;53.08;102236.22;5055785;28;20710;-72
2023/05/13 04:00:41;;;;;;;11.35;9.85;;;;;;;8.26;52.58;102242.22;5093753;27;20032;-73
2023/05/13 04:03:06;;;;;;;17.58;9.60;;;;;;;8.47;52.22;102238.59;5077805;27;20047;-72
2023/05/13 04:05:32;;;;;;;17.67;9.63;;;;;;;8.47;52.24;102238.59;5081419;27;20032;-74
2023/05/13 04:07:57;;;;;;;13.30;9.35;;;;;;;8.47;52.31;102238.59;5052641;28;20143;-70
2023/05/13 04:10:23;;;;;;;18.13;8.98;;;;;;;8.50;52.41;102241.16;5072719;28;20035;-73
2023/05/13 04:12:49;;;;;;;19.50;9.55;;;;;;;8.56;52.24;102246.31;5071683;28;20040;-73
2023/05/13 04:15:15;;;;;;;12.88;8.73;;;;;;;8.65;51.88;102245.38;5082123;27;20031;-75
2023/05/13 04:17:40;;;;;;;17.02;9.85;;;;;;;8.57;52.05;102240.22;5061634;27;20059;-75
2023/05/13 04:20:06;;;;;;;13.20;8.70;;;;;;;8.81;52.13;102242.59;5077953;28;20050;-76
2023/05/13 04:22:34;;;;;;;12.77;9.60;;;;;;;8.87;51.92;102247.75;5057992;28;20364;-76
2023/05/13 04:24:59;;;;;;;10.57;8.75;;;;;;;8.89;52.39;102244.25;5078607;28;20032;-71
2023/05/13 04:27:25;;;;;;;14.45;9.30;;;;;;;8.88;52.60;102247.75;5077515;27;20898;-75
2023/05/13 04:29:57;;;;;;;;;;;;;;;9.09;52.28;102253.59;5061216;27;20486;-74
2023/05/13 04:32:23;;;;;;;10.80;7.60;;;;;;;9.21;52.13;102258.69;5057492;27;19927;-74
2023/05/13 04:34:52;;;;;;;12.45;8.88;;;;;;;9.16;52.45;102260.47;5072496;27;20675;-68
2023/05/13 04:37:19;;;;;;;15.25;9.30;;;;;;;9.36;51.86;102262.84;5058877;28;20039;-70
2023/05/13 04:39:46;;;;;;;13.13;8.45;;;;;;;9.36;52.13;102258.47;5075150;28;20055;-70
2023/05/13 04:42:15;;;;;;;10.45;8.02;;;;;;;9.40;51.97;102262.78;5075223;28;20131;-69
2023/05/13 04:44:41;;;;;;;9.93;8.05;;;;;;;9.66;51.67;102265.94;5072918;28;20124;-69
2023/05/13 04:47:07;;;;;;;11.18;8.65;;;;;;;9.39;52.21;102268.03;5071374;28;20038;-67
2023/05/13 04:49:33;;;;;;;14.57;8.38;;;;;;;9.66;51.57;102274.63;5077646;27;20531;-69
2023/05/13 04:52:02;;;;;;;9.75;7.85;;;;;;;9.75;51.53;102279.72;5075633;27;20027;-69
2023/05/13 04:54:28;;;;;;;12.93;7.43;;;;;;;9.83;50.96;102276.16;5069856;27;20972;-70
2023/05/13 04:56:54;;;;;;;12.27;7.88;;;;;;;9.93;51.10;102272.53;5070932;28;20031;-76
2023/05/13 04:59:20;;;;;;;11.80;8.27;;;;;;;10.05;50.95;102279.31;5072439;27;20129;-72
2023/05/13 05:01:46;;;;;;;15.80;8.55;;;;;;;10.56;49.40;102277.59;5076787;27;20057;-72
2023/05/13 05:04:12;;;;;;;8.70;7.57;;;;;;;10.96;48.61;102270.81;5069913;28;20040;-73
2023/05/13 05:06:38;;;;;;;15.30;7.90;;;;;;;11.04;48.41;102279.38;5059858;28;20033;-73
2023/05/13 05:09:03;;;;;;;11.68;7.15;;;;;;;12.47;45.57;102276.19;5075795;27;20039;-74
2023/05/13 05:11:29;;;;;;;9.40;6.90;;;;;;;13.54;43.42;102274.97;5058961;28;20577;-76
2023/05/13 05:13:55;;;;;;;9.07;6.57;;;;;;;14.30;40.36;102276.06;5076131;27;20043;-75
2023/05/13 05:16:21;;;;;;;6.90;5.78;;;;;;;15.22;40.14;102272.88;5091280;27;20817;-73
2023/05/13 05:18:47;;;;;;;10.15;6.43;;;;;;;15.13;39.35;102281.09;5031000;28;20036;-71
2023/05/13 05:21:16;;;;;;;9.50;6.68;;;;;;;15.74;37.10;102281.41;5068611;27;20069;-71
2023/05/13 05:23:42;;;;;;;7.55;5.95;;;;;;;16.50;37.13;102278.34;5075460;28;20035;-71
2023/05/13 05:26:08;;;;;;;9.60;5.50;;;;;;;17.34;35.35;102287.81;5078528;28;20405;-70
2023/05/13 05:28:37;;;;;;;11.65;6.22;;;;;;;17.60;34.63;102286.63;5072266;28;20090;-70
2023/05/13 05:31:03;;;;;;;11.32;5.45;;;;;;;18.24;33.96;102281.78;5075327;28;20113;-72
2023/05/13 05:33:30;;;;;;;8.45;5.53;;;;;;;18.08;33.87;102286.94;5072750;28;20040;-72
2023/05/13 05:35:55;;;;;;;11.02;5.00;;;;;;;18.57;32.48;102288.94;5074439;28;20084;-71
2023/05/13 05:38:24;;;;;;;5.55;4.75;;;;;;;19.07;31.71;102278.31;5092159;27;20032;-71
2023/05/13 05:40:50;;;;;;;16.38;5.65;;;;;;;18.89;31.97;102288.09;5063704;28;20031;-71
2023/05/13 05:43:16;;;;;;;12.55;5.93;;;;;;;18.91;31.73;102282.75;5068910;28;20040;-71
2023/05/13 05:45:43;;;;;;;9.25;4.70;;;;;;;19.38;31.27;102292.56;5077952;28;20511;-72
2023/05/13 05:48:12;;;;;;;9.13;5.10;;;;;;;18.79;32.01;102286.03;5077950;28;20082;-73
2023/05/13 05:50:39;;;;;;;8.07;5.65;;;;;;;18.81;32.56;102287.66;5076147;28;20959;-73
2023/05/13 05:53:07;;;;;;;9.02;5.25;;;;;;;19.01;31.64;102283.09;5054565;28;20050;-73
2023/05/13 05:55:35;;;;;;;5.43;4.90;;;;;;;18.69;31.89;102290.94;5054480;28;20027;-72
2023/05/13 05:58:05;;;;;;;8.93;4.95;;;;;;;19.55;30.76;102289.00;5072577;28;20130;-72
2023/05/13 06:00:32;;;;;;;7.35;4.78;;;;;;;18.35;32.17;102290.03;5092037;27;20028;-70
2023/05/13 06:02:58;;;;;;;8.68;5.43;;;;;;;18.40;32.60;102292.44;5074837;28;20059;-69
2023/05/13 06:05:24;;;;;;;7.68;5.70;;;;;;;18.26;32.54;102296.63;5074754;28;20703;-70
2023/05/13 06:07:50;;;;;;;5.55;4.55;;;;;;;18.92;31.50;102288.88;5075356;28;20040;-75
2023/05/13 06:10:16;;;;;;;6.55;5.10;;;;;;;19.00;31.42;102294.63;5080895;28;20115;-73
2023/05/13 06:12:42;;;;;;;8.20;4.82;;;;;;;19.61;30.34;102288.63;5072256;28;20413;-70
2023/05/13 06:15:11;;;;;;;6.93;4.20;;;;;;;20.02;30.39;102290.75;5073115;28;20066;-73
2023/05/13 06:17:37;;;;;;;8.38;4.70;;;;;;;19.99;29.57;102282.94;5073113;28;20266;-72
2023/05/13 06:20:05;;;;;;;9.65;5.00;;;;;;;20.41;29.89;102283.19;5076561;28;20141;-73
2023/05/13 06:22:31;;;;;;;6.93;4.47;;;;;;;20.43;29.40;102290.13;5063328;28;20031;-73
2023/05/13 06:24:56;;;;;;;7.70;4.68;;;;;;;21.11;28.17;102286.00;5072396;28;20038;-72
2023/05/13 06:27:22;;;;;;;5.40;4.20;;;;;;;21.53;27.68;102278.94;5079138;28;20043;-73
2023/05/13 06:29:47;;;;;;;5.18;4.07;;;;;;;21.97;25.85;102278.66;5058017;28;20087;-72
2023/05/13 06:32:13;;;;;;;6.22;4.80;;;;;;;22.11;26.28;102280.44;5076751;28;20059;-71
2023/05/13 06:34:44;;;;;;;8.27;4.55;;;;;;;22.90;25.47;102288.41;5073788;28;20514;-72
2023/05/13 06:37:13;;;;;;;7.60;4.17;;;;;;;22.56;25.56;102291.59;5091733;27;20115;-72
2023/05/13 06:39:39;;;;;;;5.00;4.10;;;;;;;22.43;26.40;102284.53;5094903;27;20046;-73
2023/05/13 06:42:05;;;;;;;5.70;3.65;;;;;;;22.88;25.44;102290.34;5058863;28;21610;-73
2023/05/13 06:44:38;;;;;;;6.85;4.07;;;;;;;22.34;25.79;102296.69;5071675;27;20613;-74
2023/05/13 06:47:05;;;;;;;4.13;3.72;;;;;;;21.83;26.22;102285.88;5082683;27;20818;-72
2023/05/13 06:49:34;;;;;;;12.93;4.55;;;;;;;22.02;26.19;102296.16;5065268;28;20067;-70
2023/05/13 06:51:59;;;;;;;4.32;3.78;;;;;;;21.55;27.58;102295.66;5081756;27;20036;-71
2023/05/13 06:54:26;;;;;;;6.43;3.90;;;;;;;22.14;27.34;102290.91;5081125;27;20050;-73
2023/05/13 06:56:53;;;;;;;5.28;4.07;;;;;;;22.25;25.91;102289.31;5100410;27;20051;-73
2023/05/13 06:59:20;;;;;;;6.28;4.07;;;;;;;22.03;26.73;102293.41;5088751;27;20101;-72
2023/05/13 07:01:46;;;;;;;5.30;3.90;;;;;;;22.65;26.77;102289.22;5085475;27;20102;-70
2023/05/13 07:04:12;;;;;;;6.13;4.13;;;;;;;23.59;24.59;102280.78;5092161;27;20424;-72
2023/05/13 07:06:38;;;;;;;5.45;5.03;;;;;;;22.29;25.54;102282.81;5081548;27;20286;-71
2023/05/13 07:09:03;;;;;;;6.30;4.57;;;;;;;22.10;26.77;102288.53;5080071;27;20499;-71
2023/05/13 07:11:29;;;;;;;8.90;4.40;;;;;;;22.52;26.00;102284.75;5066440;28;20410;-70
2023/05/13 07:13:55;;;;;;;5.97;4.35;;;;;;;23.16;24.34;102278.53;5083067;27;20846;-70
2023/05/13 07:16:20;;;;;;;7.45;3.80;;;;;;;24.03;24.37;102287.31;5080844;27;20176;-70
2023/05/13 07:18:46;;;;;;;7.95;4.28;;;;;;;23.89;23.89;102288.34;5084844;27;20059;-72
2023/05/13 07:21:15;;;;;;;6.00;3.47;;;;;;;23.97;24.23;102287.78;5078956;27;20042;-72
2023/05/13 07:23:41;;;;;;;6.60;3.55;;;;;;;24.49;23.90;102280.31;5069187;28;21023;-74
2023/05/13 07:26:06;;;;;;;8.02;4.45;;;;;;;24.88;23.21;102286.97;5064400;28;20042;-71
2023/05/13 07:28:32;;;;;;;5.03;4.05;;;;;;;24.98;23.34;102281.81;5085869;27;20164;-71
2023/05/13 07:30:58;;;;;;;5.63;3.88;;;;;;;25.59;22.61;102276.84;5081740;27;20035;-73
2023/05/13 07:33:24;;;;;;;8.20;4.07;;;;;;;25.72;22.30;102282.03;5076781;28;20039;-71
2023/05/13 07:35:49;;;;;;;10.55;3.95;;;;;;;26.08;22.52;102285.31;5081014;27;20071;-73
2023/05/13 07:38:15;;;;;;;4.80;3.75;;;;;;;26.50;21.77;102287.97;5081371;27;20052;-72
2023/05/13 07:40:40;;;;;;;5.03;3.90;;;;;;;25.75;22.30;102284.44;5086700;27;20091;-73
2023/05/13 07:43:06;;;;;;;6.28;4.40;;;;;;;25.83;22.47;102281.97;5079792;28;20048;-70
2023/05/13 07:45:31;;;;;;;4.03;3.47;;;;;;;26.08;22.06;102283.47;5078483;27;20199;-73
2023/05/13 07:47:57;;;;;;;5.57;4.15;;;;;;;26.76;21.35;102276.81;5087482;27;20036;-73
2023/05/13 07:50:23;;;;;;;5.90;4.15;;;;;;;26.52;22.23;102280.63;5083965;27;20504;-72
2023/05/13 07:52:50;;;;;;;8.80;3.90;;;;;;;26.08;22.46;102283.47;5080753;27;20051;-71
2023/05/13 07:55:16;;;;;;;6.47;3.67;;;;;;;26.39;21.51;102280.00;5078983;27;20035;-71
2023/05/13 07:57:42;;;;;;;5.32;3.90;;;;;;;26.69;21.77;102280.06;5082463;27;20027;-72
2023/05/13 08:00:08;;;;;;;6.88;4.05;;;;;;;26.87;21.08;102282.06;5081427;27;20031;-72
2023/05/13 08:02:41;;;;;;;5.82;3.97;;;;;;;26.27;21.97;102288.13;5080952;27;20093;-73
2023/05/13 08:05:09;;;;;;;4.35;3.63;;;;;;;26.04;21.31;102286.50;5079724;27;20024;-73
2023/05/13 08:07:35;;;;;;;9.23;3.80;;;;;;;25.96;22.35;102291.69;5078717;28;20032;-73
2023/05/13 08:10:01;;;;;;;3.97;3.10;;;;;;;26.82;20.70;102284.31;5084650;28;20038;-72
2023/05/13 08:12:26;;;;;;;7.72;4.80;;;;;;;26.16;22.60;102292.69;5077776;28;20742;-73
2023/05/13 08:14:52;;;;;;;6.00;3.60;;;;;;;26.45;22.11;102287.53;5084139;27;20070;-71
2023/05/13 08:17:18;;;;;;;6.70;4.05;;;;;;;25.95;22.17;102292.63;5081969;27;20584;-73
2023/05/13 08:19:44;;;;;;;7.72;4.07;;;;;;;26.49;21.36;102291.59;5064121;28;20377;-73
2023/05/13 08:22:10;;;;;;;9.88;3.40;;;;;;;26.70;21.27;102294.31;5078923;28;20199;-74
2023/05/13 08:24:36;;;;;;;4.35;3.65;;;;;;;26.60;21.38;102288.03;5077306;28;20557;-73
2023/05/13 08:27:02;;;;;;;8.68;4.03;;;;;;;26.62;20.88;102280.72;5080746;27;20172;-72
2023/05/13 08:29:28;;;;;;;9.23;3.75;;;;;;;26.41;22.00;102281.56;5077692;27;20044;-72
2023/05/13 08:31:54;;;;;;;6.90;3.88;;;;;;;26.55;21.72;102276.84;5081664;27;20031;-73
2023/05/13 08:34:19;;;;;;;6.28;3.70;;;;;;;26.57;22.02;102275.72;5076110;27;20445;-73
2023/05/13 08:36:45;;;;;;;8.20;4.32;;;;;;;26.38;22.59;102278.28;5068153;28;20031;-73
2023/05/13 08:39:11;;;;;;;5.35;4.40;;;;;;;26.84;22.36;102277.00;5077542;28;21031;-73
2023/05/13 08:41:36;;;;;;;6.13;3.92;;;;;;;26.15;22.14;102277.59;5077887;27;20063;-74
2023/05/13 08:44:08;;;;;;;7.55;4.45;;;;;;;25.63;23.66;102272.09;5075554;28;20040;-73
2023/05/13 08:46:36;;;;;;;6.28;4.10;;;;;;;26.18;23.15;102282.69;5073829;27;21508;-74
2023/05/13 08:49:02;;;;;;;5.32;3.85;;;;;;;26.53;22.51;102287.69;5080614;28;20040;-74
2023/05/13 08:51:28;;;;;;;4.70;3.17;;;;;;;25.75;22.07;102289.78;5076116;28;20039;-73
2023/05/13 08:53:55;;;;;;;5.72;4.50;;;;;;;25.40;23.08;102292.69;5076931;28;20031;-74
2023/05/13 08:56:24;;;;;;;9.27;3.63;;;;;;;26.12;22.66;102294.78;5074156;28;20105;-72
2023/05/13 08:58:49;;;;;;;9.10;3.97;;;;;;;25.24;23.61;102295.75;5079604;27;20109;-72
2023/05/13 09:01:16;;;;;;;7.78;4.00;;;;;;;24.53;24.32;102293.31;5074184;28;20185;-72
2023/05/13 09:03:53;;;;;;;8.50;4.85;;;;;;;24.71;24.84;102290.16;5075286;28;20358;-72
2023/05/13 09:06:18;;;;;;;7.53;4.15;;;;;;;25.03;23.86;102287.63;5088346;28;20039;-71
2023/05/13 09:08:44;;;;;;;6.78;4.95;;;;;;;24.96;24.12;102287.25;5082750;28;20141;-71
2023/05/13 09:11:10;;;;;;;9.30;4.57;;;;;;;24.26;25.92;102290.91;5086930;28;20613;-72
2023/05/13 09:13:35;;;;;;;6.78;4.05;;;;;;;23.71;26.39;102290.53;5082740;28;20043;-72
2023/05/13 09:16:01;;;;;;;8.85;4.65;;;;;;;23.78;26.11;102290.94;5085912;28;20505;-71
2023/05/13 09:18:30;;;;;;;7.45;3.83;;;;;;;23.48;26.35;102288.75;5082401;28;20096;-71
2023/05/13 09:20:56;;;;;;;7.88;4.88;;;;;;;23.14;26.87;102285.78;5081361;28;20138;-72
2023/05/13 09:23:22;;;;;;;8.45;4.00;;;;;;;22.74;27.53;102288.63;5078833;28;20127;-70
2023/05/13 09:25:48;;;;;;;5.95;3.80;;;;;;;22.56;28.00;102286.25;5080014;28;20144;-71
2023/05/13 09:28:14;;;;;;;4.38;3.97;;;;;;;22.46;27.50;102290.50;5081316;28;20180;-71
2023/05/13 09:30:40;;;;;;;4.07;3.42;;;;;;;22.48;27.49;102279.75;5073807;28;20540;-72
2023/05/13 09:33:18;;;;;;;5.40;3.42;;;;;;;22.00;27.70;102271.44;5080554;28;20058;-72
2023/05/13 09:35:53;;;;;;;7.00;3.22;;;;;;;22.55;26.55;102268.56;5062744;28;20381;-72
2023/05/13 09:38:20;;;;;;;9.75;3.83;;;;;;;22.96;27.55;102267.50;5072810;28;20125;-71
2023/05/13 09:40:53;;;;;;;8.82;2.95;;;;;;;23.18;25.04;102266.78;5077965;28;20509;-72
2023/05/13 09:43:24;;;;;;;9.65;4.68;;;;;;;22.77;25.82;102273.28;5076090;28;20128;-71
2023/05/13 09:45:54;;;;;;;7.07;2.97;;;;;;;22.33;25.49;102263.00;5074596;28;20032;-73
2023/05/13 09:48:24;;;;;;;3.35;2.35;;;;;;;22.03;26.45;102272.09;5073602;28;20079;-71
2023/05/13 09:50:51;;;;;;;4.53;2.72;;;;;;;21.91;27.30;102265.78;5074144;28;20058;-72
2023/05/13 09:53:19;;;;;;;3.97;2.50;;;;;;;21.71;26.50;102266.22;5072602;28;20048;-71
2023/05/13 09:55:50;;;;;;;5.20;2.80;;;;;;;22.22;26.33;102270.88;5074875;28;20047;-72
2023/05/13 09:58:17;;;;;;;8.65;3.00;;;;;;;22.63;26.83;102270.69;5074471;28;20150;-70
2023/05/13 10:00:43;;;;;;;6.55;3.13;;;;;;;22.95;26.36;102260.44;5080349;28;20588;-70
2023/05/13 10:03:09;;;;;;;3.95;2.30;;;;;;;22.58;26.62;102264.81;5065939;28;20036;-71
2023/05/13 10:05:35;;;;;;;4.65;2.67;;;;;;;22.22;27.69;102261.06;5089809;27;20035;-71
2023/05/13 10:08:01;;;;;;;7.38;2.45;;;;;;;22.20;27.79;102256.81;5080344;28;20056;-71
2023/05/13 10:10:29;;;;;;;7.32;2.47;;;;;;;23.00;27.66;102255.63;5076313;28;20852;-72
2023/05/13 10:12:58;;;;;;;6.75;3.10;;;;;;;23.34;26.32;102250.59;5075888;28;20112;-72
2023/05/13 10:15:24;;;;;;;3.35;2.10;;;;;;;23.17;26.81;102261.59;5075228;28;20358;-72
2023/05/13 10:17:50;;;;;;;4.05;2.38;;;;;;;23.56;26.29;102262.31;5095099;27;20571;-70
2023/05/13 10:20:16;;;;;;;4.25;2.58;;;;;;;23.46;26.55;102253.31;5083855;28;20039;-71
2023/05/13 10:22:42;;;;;;;4.35;1.95;;;;;;;23.04;25.51;102250.94;5078704;28;21818;-71
2023/05/13 10:25:08;;;;;;;4.22;2.38;;;;;;;23.45;26.92;102251.59;5080523;28;20065;-71
2023/05/13 10:27:34;;;;;;;6.60;2.13;;;;;;;23.35;26.42;102252.28;5076318;28;20484;-70
2023/05/13 10:30:00;;;;;;;4.07;2.03;;;;;;;23.32;25.58;102257.84;5082700;28;20088;-70
2023/05/13 10:32:29;;;;;;;2.78;2.17;;;;;;;23.21;24.85;102249.75;5079784;28;20092;-71
2023/05/13 10:35:11;;;;;;;4.05;2.28;;;;;;;23.11;26.58;102256.69;5078398;28;20576;-71
2023/05/13 10:38:00;;;;;;;5.70;2.83;;;;;;;21.96;29.04;102246.84;5078958;28;20028;-71
2023/05/13 10:40:54;;;;;;;5.15;3.72;;;;;;;22.39;27.89;102250.13;5076164;28;20050;-71
2023/05/13 10:43:21;;;;;;;6.10;2.83;;;;;;;22.55;27.96;102251.72;5080410;27;20088;-71
2023/05/13 10:45:57;;;;;;;6.78;3.20;;;;;;;22.71;27.58;102251.53;5096644;27;20940;-71
2023/05/13 10:48:23;;;;;;;7.80;2.67;;;;;;;23.13;27.53;102242.28;5079323;28;20078;-70
2023/05/13 10:51:00;;;;;;;8.73;3.33;;;;;;;22.76;28.46;102244.06;5061294;28;20126;-70
2023/05/13 10:53:36;;;;;;;3.92;3.05;;;;;;;22.39;28.26;102249.28;5079936;28;20055;-72
2023/05/13 10:56:06;;;;;;;6.47;3.85;;;;;;;22.15;28.67;102257.13;5079123;28;20023;-72
2023/05/13 10:58:33;;;;;;;4.60;3.65;;;;;;;22.14;29.08;102252.78;5076600;28;20043;-72
2023/05/13 11:01:27;;;;;;;9.73;3.63;;;;;;;22.39;28.38;102241.28;5078386;28;20116;-72
2023/05/13 11:03:58;;;;;;;10.52;3.25;;;;;;;22.25;27.73;102246.69;5077670;28;20178;-71
2023/05/13 11:06:36;;;;;;;4.60;3.08;;;;;;;21.79;28.28;102252.44;5077712;28;20028;-70
2023/05/13 11:09:12;;;;;;;4.05;3.65;;;;;;;21.67;28.23;102249.63;5081665;28;20061;-71
2023/05/13 11:11:38;;;;;;;4.28;2.33;;;;;;;21.94;27.63;102241.63;5074742;28;20074;-71
2023/05/13 11:14:19;;;;;;;4.32;3.05;;;;;;;22.47;28.18;102241.63;5083687;28;20040;-71
2023/05/13 11:16:52;;;;;;;5.50;2.75;;;;;;;22.54;27.12;102240.22;5077843;28;20105;-70
2023/05/13 11:19:29;;;;;;;10.45;3.05;;;;;;;22.67;25.80;102234.00;5076224;28;20040;-72
2023/05/13 11:22:10;;;;;;;2.80;2.60;;;;;;;22.59;27.91;102235.41;5072750;28;20054;-72
2023/05/13 11:24:35;;;;;;;7.18;2.22;;;;;;;22.93;24.06;102230.38;5075106;28;20048;-72
2023/05/13 11:27:15;;;;;;;2.17;1.67;;;;;;;22.90;23.75;102219.94;5079065;28;20043;-71
2023/05/13 11:29:49;;;;;;;6.60;2.30;;;;;;;23.01;23.94;102227.19;5076049;28;20208;-70